Time;durP1;ratioP1;P1;durP2;ratioP2;P2;SDS_P1;SDS_P2;PMS_P1;PMS_P2;Temp;Humidity;BMP_temperature;BMP_pressure;BME280_temperature;BME280_humidity;BME280_pressure;Samples;Min_cycle;Max_cycle;Signal;HPM_P1;HPM_P2
2022/09/23 00:00:42;;;;;;;13.32;11.70;;;10.50;99.90;;;;;;7401168;19;20029;-92
2022/09/23 00:03:09;;;;;;;17.17;11.52;;;10.50;99.90;;;;;;7403358;19;20018;-91
2022/09/23 00:05:36;;;;;;;14.38;13.02;;;10.40;99.90;;;;;;7400457;19;20022;-91
2022/09/23 00:08:04;;;;;;;13.55;11.55;;;10.40;99.90;;;;;;7401196;19;20405;-91
2022/09/23 00:10:30;;;;;;;17.70;12.73;;;10.40;99.90;;;;;;7401570;19;20078;-91
2022/09/23 00:12:57;;;;;;;12.63;11.07;;;10.30;99.90;;;;;;7397349;19;20011;-91
2022/09/23 00:15:24;;;;;;;15.13;10.95;;;10.30;99.90;;;;;;7400084;19;20012;-91
2022/09/23 00:17:53;;;;;;;14.10;12.75;;;10.20;99.90;;;;;;7398073;19;20018;-91
2022/09/23 00:20:19;;;;;;;14.23;12.77;;;10.20;99.90;;;;;;7399051;19;20018;-91
2022/09/23 00:22:45;;;;;;;14.35;12.95;;;10.10;99.90;;;;;;7400678;19;20356;-91
2022/09/23 00:25:11;;;;;;;12.70;11.05;;;10.10;99.90;;;;;;7398788;19;20069;-92
2022/09/23 00:27:38;;;;;;;15.18;13.60;;;10.10;99.90;;;;;;7400189;19;20015;-91
2022/09/23 00:30:08;;;;;;;14.25;12.95;;;10.10;99.90;;;;;;7401784;19;20022;-92
2022/09/23 00:32:35;;;;;;;14.38;12.98;;;10.00;99.90;;;;;;7401160;19;20024;-91
2022/09/23 00:35:02;;;;;;;15.00;12.23;;;10.00;99.90;;;;;;7402545;19;20030;-90
2022/09/23 00:37:29;;;;;;;16.58;13.35;;;9.90;99.90;;;;;;7397343;19;20007;-92
2022/09/23 00:39:55;;;;;;;15.35;13.68;;;9.90;99.90;;;;;;7399820;19;20022;-91
2022/09/23 00:42:23;;;;;;;15.73;14.10;;;9.90;99.90;;;;;;7398569;19;20033;-92
2022/09/23 00:44:59;;;;;;;15.75;13.63;;;9.80;99.90;;;;;;7398597;19;20090;-92
2022/09/23 00:47:50;;;;;;;14.90;13.50;;;9.80;99.90;;;;;;7400517;19;20022;-92
2022/09/23 00:50:33;;;;;;;15.35;13.85;;;9.80;99.90;;;;;;7399373;19;20086;-92
2022/09/23 00:53:03;;;;;;;14.43;13.05;;;9.80;99.90;;;;;;7400513;19;20022;-91
2022/09/23 00:55:44;;;;;;;13.90;11.13;;;9.80;99.90;;;;;;7397857;19;20018;-91
2022/09/23 00:58:16;;;;;;;15.30;13.80;;;9.80;99.90;;;;;;7397442;19;20018;-91
2022/09/23 01:00:45;;;;;;;14.75;11.57;;;9.80;99.90;;;;;;7398498;19;20018;-92
2022/09/23 01:03:11;;;;;;;13.98;12.60;;;9.80;99.90;;;;;;7400899;19;20026;-91
2022/09/23 01:05:38;;;;;;;15.38;12.48;;;9.80;99.90;;;;;;7401631;19;20018;-91
2022/09/23 01:08:07;;;;;;;15.77;12.80;;;9.80;99.90;;;;;;7400025;19;20478;-92
2022/09/23 01:10:49;;;;;;;13.70;12.35;;;9.80;99.90;;;;;;7398967;19;20017;-92
2022/09/23 01:13:40;;;;;;;13.45;11.05;;;9.80;99.90;;;;;;7399383;19;20018;-92
2022/09/23 01:16:24;;;;;;;14.75;11.95;;;9.80;99.90;;;;;;7398178;19;20010;-92
2022/09/23 01:19:23;;;;;;;14.88;13.38;;;9.70;99.90;;;;;;7399446;19;20047;-92
2022/09/23 01:21:56;;;;;;;15.32;12.32;;;9.70;99.90;;;;;;7401934;19;20018;-92
2022/09/23 01:24:31;;;;;;;12.00;10.73;;;9.70;99.90;;;;;;7399713;19;20034;-92
2022/09/23 01:27:18;;;;;;;13.25;12.00;;;9.70;99.90;;;;;;7399011;19;20017;-91
2022/09/23 01:29:46;;;;;;;16.30;10.82;;;9.70;99.90;;;;;;7397049;19;20010;-92
2022/09/23 01:32:32;;;;;;;13.82;12.52;;;9.70;99.90;;;;;;7399333;19;20040;-91
2022/09/23 01:35:39;;;;;;;14.65;13.18;;;9.70;99.90;;;;;;7395562;19;20018;-90
2022/09/23 01:38:13;;;;;;;13.45;12.13;;;9.70;99.90;;;;;;7393508;19;20037;-92
2022/09/23 01:41:02;;;;;;;14.25;10.77;;;9.60;99.90;;;;;;7398786;19;20027;-91
2022/09/23 01:43:37;;;;;;;17.85;11.57;;;9.60;99.90;;;;;;7399139;19;20474;-92
2022/09/23 01:46:10;;;;;;;14.88;13.38;;;9.60;99.90;;;;;;7401170;19;20018;-92
2022/09/23 01:48:53;;;;;;;14.75;13.27;;;9.60;99.90;;;;;;7398416;19;20022;-92
2022/09/23 01:51:33;;;;;;;15.93;12.03;;;9.60;99.90;;;;;;7399084;19;20031;-92
2022/09/23 01:54:14;;;;;;;14.05;12.55;;;9.60;99.90;;;;;;7399108;19;20262;-91
2022/09/23 01:57:06;;;;;;;11.88;10.50;;;9.60;99.90;;;;;;7399477;19;20457;-92
2022/09/23 01:59:46;;;;;;;15.50;10.43;;;9.60;99.90;;;;;;7397507;19;20384;-92
2022/09/23 02:02:18;;;;;;;13.88;12.07;;;9.50;99.90;;;;;;7400328;19;20043;-90
2022/09/23 02:04:44;;;;;;;17.25;12.68;;;9.50;99.90;;;;;;7393838;19;20090;-92
2022/09/23 02:07:19;;;;;;;13.45;12.15;;;9.60;99.90;;;;;;7398786;19;20021;-91
2022/09/23 02:09:52;;;;;;;11.95;10.00;;;9.50;99.90;;;;;;7399866;19;20082;-92
2022/09/23 02:12:21;;;;;;;12.65;9.80;;;9.60;99.90;;;;;;7396742;19;20019;-91
2022/09/23 02:14:53;;;;;;;15.38;10.98;;;9.60;99.90;;;;;;7391569;19;20013;-91
2022/09/23 02:17:46;;;;;;;12.35;9.57;;;9.60;99.90;;;;;;7399477;19;20042;-92
2022/09/23 02:20:14;;;;;;;13.02;11.43;;;9.60;99.90;;;;;;7392550;19;20018;-92
2022/09/23 02:23:00;;;;;;;12.77;11.57;;;9.50;99.90;;;;;;7398566;19;20501;-92
2022/09/23 02:25:40;;;;;;;12.88;10.48;;;9.50;99.90;;;;;;7399242;19;20018;-92
2022/09/23 02:28:17;;;;;;;12.70;10.20;;;9.50;99.90;;;;;;7397797;19;20023;-91
2022/09/23 02:31:06;;;;;;;12.57;11.27;;;9.50;99.90;;;;;;7400144;19;20108;-92
2022/09/23 02:33:44;;;;;;;12.68;11.00;;;9.50;99.90;;;;;;7396684;19;20287;-92
2022/09/23 02:36:28;;;;;;;14.05;11.63;;;9.60;99.90;;;;;;7395902;19;20048;-91
2022/09/23 02:39:02;;;;;;;11.85;10.65;;;9.50;99.90;;;;;;7399688;19;20022;-91
2022/09/23 02:41:48;;;;;;;14.02;11.63;;;9.50;99.90;;;;;;7398206;19;20029;-92
2022/09/23 02:44:16;;;;;;;13.32;10.00;;;9.50;99.90;;;;;;7398515;19;20035;-92
2022/09/23 02:46:42;;;;;;;12.43;11.13;;;9.40;99.90;;;;;;7395042;19;20019;-91
2022/09/23 02:49:29;;;;;;;12.45;10.32;;;9.40;99.90;;;;;;7398297;19;20030;-92
2022/09/23 02:51:58;;;;;;;12.02;10.82;;;9.40;99.90;;;;;;7397254;19;20074;-91
2022/09/23 02:54:27;;;;;;;13.40;12.02;;;9.40;99.90;;;;;;7398066;19;20018;-92
2022/09/23 02:56:53;;;;;;;11.63;10.27;;;9.40;99.90;;;;;;7396836;19;20062;-91
2022/09/23 02:59:21;;;;;;;11.43;9.95;;;9.40;99.90;;;;;;7397718;19;20022;-92
2022/09/23 03:02:51;;;;;;;13.98;11.20;;;9.30;99.90;;;;;;7395430;19;20028;-91
2022/09/23 03:05:33;;;;;;;13.15;9.60;;;9.30;99.90;;;;;;7392923;19;20019;-92
2022/09/23 03:08:20;;;;;;;10.80;8.77;;;9.20;99.90;;;;;;7393343;19;20048;-92
2022/09/23 03:11:07;;;;;;;12.35;11.07;;;9.20;99.90;;;;;;7394781;19;20082;-92
2022/09/23 03:13:59;;;;;;;11.15;9.65;;;9.20;99.90;;;;;;7396196;19;20025;-91
2022/09/23 03:16:38;;;;;;;12.13;10.18;;;9.20;99.90;;;;;;7394554;19;20025;-91
2022/09/23 03:19:33;;;;;;;14.23;12.93;;;9.10;99.90;;;;;;7394033;19;20024;-91
2022/09/23 03:22:13;;;;;;;13.60;12.38;;;9.00;99.90;;;;;;7392972;19;20027;-89
2022/09/23 03:24:43;;;;;;;14.20;12.77;;;9.00;99.90;;;;;;7397229;19;20031;-90
2022/09/23 03:27:17;;;;;;;13.68;12.25;;;8.90;99.90;;;;;;7395221;19;20014;-89
2022/09/23 03:29:46;;;;;;;12.45;11.15;;;8.90;99.90;;;;;;7396529;19;20070;-89
2022/09/23 03:32:15;;;;;;;13.38;9.93;;;8.90;99.90;;;;;;7393085;19;20015;-90
2022/09/23 03:34:43;;;;;;;13.48;12.10;;;8.90;99.90;;;;;;7393749;19;20018;-90
2022/09/23 03:37:34;;;;;;;12.90;11.13;;;8.90;99.90;;;;;;7387081;19;20078;-90
2022/09/23 03:40:00;;;;;;;13.50;10.27;;;8.90;99.90;;;;;;7394157;19;20359;-90
2022/09/23 03:42:29;;;;;;;14.43;10.38;;;8.90;99.90;;;;;;7394761;19;20513;-90
2022/09/23 03:44:56;;;;;;;16.58;10.82;;;8.80;99.90;;;;;;7392632;19;20051;-89
2022/09/23 03:47:25;;;;;;;12.57;11.38;;;8.80;99.90;;;;;;7393827;19;20388;-87
2022/09/23 03:49:52;;;;;;;12.88;11.63;;;8.90;99.90;;;;;;7393586;19;20392;-90
2022/09/23 03:52:21;;;;;;;11.15;9.90;;;8.80;99.90;;;;;;7395384;19;20010;-90
2022/09/23 03:54:47;;;;;;;11.70;10.40;;;8.80;99.90;;;;;;7394162;19;20021;-89
2022/09/23 03:57:13;;;;;;;14.30;12.80;;;8.80;99.90;;;;;;7388904;19;20010;-91
2022/09/23 03:59:39;;;;;;;12.88;10.75;;;8.70;99.90;;;;;;7394575;19;20650;-91
2022/09/23 04:02:07;;;;;;;13.40;12.15;;;8.70;99.90;;;;;;7393605;19;20515;-90
2022/09/23 04:04:37;;;;;;;12.80;10.02;;;8.60;99.90;;;;;;7395810;19;20556;-91
2022/09/23 09:51:26;;;;;;;2.40;1.42;;;14.60;99.90;;;;;;7382841;19;20723;-39
2022/09/23 09:53:55;;;;;;;0.00;0.00;;;15.10;99.90;;;;;;7427185;19;20018;-55
2022/09/23 10:00:21;;;;;;;4.00;1.42;;;16.60;99.90;;;;;;7121992;19;3009332;-69
2022/09/23 10:02:54;;;;;;;3.88;1.50;;;18.00;99.90;;;;;;7428551;19;20014;-61
2022/09/23 10:05:31;;;;;;;2.28;1.20;;;18.50;99.90;;;;;;6973938;19;3010172;-60
2022/09/23 10:08:25;;;;;;;2.03;1.40;;;18.90;99.90;;;;;;7328751;19;20407;-57
2022/09/23 10:11:02;;;;;;;2.92;1.40;;;19.10;99.90;;;;;;7427983;19;20085;-58
2022/09/23 10:13:29;;;;;;;1.67;1.20;;;19.30;99.90;;;;;;7430863;19;20010;-58
2022/09/23 10:16:00;;;;;;;2.95;1.30;;;19.40;99.90;;;;;;7429480;19;20085;-58
2022/09/23 10:18:31;;;;;;;2.13;1.35;;;19.60;99.90;;;;;;7430356;19;20018;-59
2022/09/23 10:21:07;;;;;;;2.15;1.30;;;19.70;99.90;;;;;;7428902;19;20010;-59
2022/09/23 10:23:37;;;;;;;2.25;1.15;;;19.80;99.90;;;;;;7428671;19;20010;-60
2022/09/23 10:26:06;;;;;;;3.05;1.45;;;19.90;99.90;;;;;;7431248;19;20022;-60
2022/09/23 10:28:54;;;;;;;2.33;1.40;;;20.00;99.90;;;;;;7428546;19;20056;-60
2022/09/23 10:31:26;;;;;;;1.83;1.10;;;20.10;99.90;;;;;;7426211;19;20025;-60
2022/09/23 10:33:56;;;;;;;2.10;1.33;;;20.20;99.90;;;;;;7430711;19;20356;-60
2022/09/23 10:36:22;;;;;;;1.88;1.38;;;20.20;99.90;;;;;;7428126;19;20018;-60
2022/09/23 10:38:52;;;;;;;2.08;1.20;;;20.30;99.90;;;;;;7425720;19;20025;-60
2022/09/23 10:48:00;;;;;;;1.50;1.27;;;20.50;99.90;;;;;;7426685;19;20010;-60
2022/09/23 10:50:32;;;;;;;1.88;1.20;;;20.50;99.90;;;;;;7423859;19;20078;-60
2022/09/23 10:53:16;;;;;;;2.37;1.20;;;20.50;99.90;;;;;;7429730;19;20517;-60
2022/09/23 10:55:57;;;;;;;1.27;1.17;;;20.60;99.90;;;;;;7426306;19;20393;-60
2022/09/23 10:58:43;;;;;;;2.45;1.17;;;20.60;99.90;;;;;;7425079;19;20018;-61
2022/09/23 11:01:17;;;;;;;2.25;1.15;;;20.60;99.90;;;;;;7428747;19;20022;-61
2022/09/23 11:03:57;;;;;;;1.77;1.27;;;20.60;99.90;;;;;;7427128;19;20078;-61
2022/09/23 11:06:31;;;;;;;1.10;0.90;;;20.60;99.90;;;;;;7426374;19;20041;-61
2022/09/23 11:09:26;;;;;;;2.45;1.23;;;20.70;99.90;;;;;;7428617;19;20085;-61
2022/09/23 11:12:03;;;;;;;3.05;1.20;;;20.70;99.90;;;;;;7397119;19;20078;-61
2022/09/23 11:15:06;;;;;;;2.10;1.27;;;20.70;99.90;;;;;;7399338;19;20078;-60
2022/09/23 11:18:10;;;;;;;1.75;0.90;;;20.70;99.90;;;;;;7399193;19;20019;-60
2022/09/23 11:20:35;;;;;;;;;;;20.70;99.90;;;;;;7400384;19;20015;-61
2022/09/23 11:23:28;;;;;;;2.58;1.33;;;20.70;99.90;;;;;;7397525;19;19932;-61
2022/09/23 11:26:10;;;;;;;2.55;1.20;;;20.70;99.90;;;;;;7398796;19;20523;-60
2022/09/23 11:29:07;;;;;;;2.58;1.15;;;20.80;99.90;;;;;;7398755;19;20503;-60
2022/09/23 11:31:59;;;;;;;1.73;1.23;;;20.80;99.90;;;;;;7395192;19;20018;-60
2022/09/23 11:34:47;;;;;;;1.30;1.05;;;20.80;99.90;;;;;;7397562;19;20015;-60
2022/09/23 11:37:18;;;;;;;1.77;1.23;;;20.80;99.90;;;;;;7394059;19;20054;-60
2022/09/23 11:39:55;;;;;;;1.55;1.10;;;20.80;99.90;;;;;;7396366;19;20010;-60
2022/09/23 11:42:27;;;;;;;1.48;1.10;;;20.80;99.90;;;;;;7396978;19;20406;-60
2022/09/23 11:45:14;;;;;;;2.05;1.20;;;20.80;99.90;;;;;;7395887;19;20014;-60
2022/09/23 11:47:51;;;;;;;3.60;1.23;;;20.80;99.90;;;;;;7398734;19;20018;-61
2022/09/23 11:50:33;;;;;;;1.90;1.33;;;20.80;99.90;;;;;;7397643;19;20500;-60
2022/09/23 11:53:32;;;;;;;1.20;1.00;;;20.80;99.90;;;;;;7394968;19;20022;-60
2022/09/23 11:56:30;;;;;;;4.05;1.15;;;20.80;99.90;;;;;;7394415;19;20047;-60
2022/09/23 11:59:14;;;;;;;2.28;1.20;;;20.80;99.90;;;;;;7391802;19;20594;-59
2022/09/23 12:02:04;;;;;;;1.33;1.10;;;20.80;99.90;;;;;;7397245;19;20073;-60
2022/09/23 12:04:44;;;;;;;1.10;0.90;;;20.90;99.90;;;;;;7398620;19;20017;-60
2022/09/23 12:07:19;;;;;;;2.25;1.27;;;20.80;99.90;;;;;;7395303;19;20015;-60
2022/09/23 12:10:02;;;;;;;1.70;1.10;;;20.80;99.90;;;;;;7398929;19;20014;-60
2022/09/23 12:12:58;;;;;;;1.20;1.00;;;20.90;99.90;;;;;;7393785;19;20475;-60
2022/09/23 12:16:00;;;;;;;1.65;1.20;;;20.90;99.90;;;;;;7397228;19;20022;-60
2022/09/23 12:18:52;;;;;;;1.52;1.02;;;20.90;99.90;;;;;;7392084;19;20038;-60
2022/09/23 12:21:26;;;;;;;1.33;1.10;;;20.90;99.90;;;;;;7392727;19;20472;-61
2022/09/23 12:23:55;;;;;;;1.27;1.00;;;20.90;99.90;;;;;;7395833;19;20031;-60
2022/09/23 12:26:24;;;;;;;2.65;1.10;;;20.90;99.90;;;;;;7393992;19;20022;-60
2022/09/23 12:28:53;;;;;;;1.55;1.10;;;20.90;99.90;;;;;;7396583;19;20014;-60
2022/09/23 12:31:29;;;;;;;2.13;1.20;;;20.90;99.90;;;;;;7395197;19;20018;-61
2022/09/23 12:33:59;;;;;;;0.80;0.80;;;20.90;99.90;;;;;;7395987;19;20011;-61
2022/09/23 12:36:33;;;;;;;2.10;1.20;;;20.90;99.90;;;;;;7396366;19;20014;-60
2022/09/23 12:39:06;;;;;;;2.05;1.17;;;20.90;99.90;;;;;;7394850;19;20062;-60
2022/09/23 12:41:41;;;;;;;1.50;1.10;;;20.90;99.90;;;;;;7398251;19;20014;-59
2022/09/23 12:44:11;;;;;;;2.00;1.20;;;20.90;99.90;;;;;;7392235;19;20010;-61
2022/09/23 12:46:38;;;;;;;1.45;1.00;;;20.90;99.90;;;;;;7397679;19;20522;-60
2022/09/23 12:49:24;;;;;;;1.55;1.00;;;20.90;99.90;;;;;;7392379;19;20014;-60
2022/09/23 12:52:12;;;;;;;1.20;1.00;;;20.90;99.90;;;;;;7398262;19;20010;-59
2022/09/23 12:54:40;;;;;;;1.60;1.00;;;20.90;99.90;;;;;;7392624;19;20014;-61
2022/09/23 12:57:13;;;;;;;1.60;1.05;;;21.00;99.90;;;;;;7393676;19;20014;-61
2022/09/23 13:00:05;;;;;;;1.38;0.93;;;21.00;99.90;;;;;;7388478;19;20070;-60
2022/09/23 13:02:41;;;;;;;1.55;0.90;;;21.00;99.90;;;;;;7391904;19;20011;-61
2022/09/23 13:08:06;;;;;;;1.83;1.10;;;21.00;99.90;;;;;;7392866;19;20487;-60
2022/09/23 13:10:40;;;;;;;1.67;1.08;;;21.00;99.90;;;;;;7394820;19;20007;-60
2022/09/23 13:13:16;;;;;;;2.05;1.30;;;21.00;99.90;;;;;;7391910;19;20357;-60
2022/09/23 13:15:42;;;;;;;1.70;1.10;;;21.00;99.90;;;;;;7392468;19;20386;-60
2022/09/23 13:18:18;;;;;;;1.80;1.10;;;21.00;99.90;;;;;;7393505;19;20025;-60
2022/09/23 13:20:45;;;;;;;1.52;1.08;;;21.00;99.90;;;;;;7392404;19;20017;-60
2022/09/23 13:23:26;;;;;;;2.10;1.15;;;21.00;99.90;;;;;;7392117;19;20023;-61
2022/09/23 13:25:56;;;;;;;1.73;1.10;;;21.00;99.90;;;;;;7393619;19;20345;-60
2022/09/23 13:28:30;;;;;;;2.42;1.30;;;21.00;99.90;;;;;;7392931;19;20018;-60
2022/09/23 13:30:56;;;;;;;2.30;1.17;;;21.00;99.90;;;;;;7394006;19;20011;-63
2022/09/23 13:33:37;;;;;;;3.25;1.40;;;21.00;99.90;;;;;;7392304;19;20498;-62
2022/09/23 13:36:11;;;;;;;1.90;1.13;;;21.00;99.90;;;;;;7393266;19;20384;-62
2022/09/23 13:38:37;;;;;;;3.67;1.33;;;21.10;99.90;;;;;;7395475;19;20015;-61
2022/09/23 13:41:21;;;;;;;2.38;1.35;;;21.10;99.90;;;;;;7392322;19;20022;-61
2022/09/23 13:43:49;;;;;;;1.23;1.00;;;21.10;99.90;;;;;;7395124;19;20018;-62
2022/09/23 13:46:37;;;;;;;1.70;1.13;;;21.10;99.90;;;;;;7393374;19;20015;-61
2022/09/23 13:49:03;;;;;;;1.33;1.13;;;21.10;99.90;;;;;;7391141;19;20471;-61
2022/09/23 13:51:33;;;;;;;1.80;1.30;;;21.10;99.90;;;;;;7390553;19;20034;-61
2022/09/23 13:54:02;;;;;;;1.95;1.40;;;21.10;99.90;;;;;;7394550;19;20022;-60
2022/09/23 13:56:31;;;;;;;1.65;1.20;;;21.10;99.90;;;;;;7396443;19;20528;-60
2022/09/23 13:59:29;;;;;;;2.28;1.00;;;21.10;99.90;;;;;;7393328;19;20475;-61
2022/09/23 14:02:12;;;;;;;1.10;1.00;;;21.10;99.90;;;;;;7390761;19;20192;-65
2022/09/23 14:04:39;;;;;;;1.48;1.05;;;21.10;99.90;;;;;;7393889;19;20018;-62
2022/09/23 14:07:07;;;;;;;1.67;1.20;;;21.10;99.90;;;;;;7393919;19;20035;-63
2022/09/23 14:09:34;;;;;;;2.60;1.13;;;21.10;99.90;;;;;;7389414;19;20014;-62
2022/09/23 14:12:03;;;;;;;3.47;1.33;;;21.20;99.90;;;;;;7393369;19;20018;-62
2022/09/23 14:14:29;;;;;;;1.48;1.10;;;21.10;99.90;;;;;;7392242;19;20019;-62
2022/09/23 14:19:25;;;;;;;12.07;8.68;;;21.10;99.90;;;;;;7424298;19;20343;-84
2022/09/23 14:21:59;;;;;;;9.80;7.75;;;20.60;99.90;;;;;;7429093;19;20018;-84
2022/09/23 14:24:32;;;;;;;12.45;7.15;;;19.80;99.90;;;;;;7425979;19;20042;-83
2022/09/23 14:27:05;;;;;;;11.32;8.82;;;19.30;99.90;;;;;;7432370;19;20018;-84
2022/09/23 14:29:36;;;;;;;13.10;10.10;;;18.90;99.90;;;;;;7427221;19;20022;-84
2022/09/23 14:32:25;;;;;;;14.05;9.10;;;18.50;99.90;;;;;;7426610;19;20475;-84
2022/09/23 14:35:02;;;;;;;18.08;13.68;;;18.20;99.90;;;;;;7427690;19;20018;-83
2022/09/23 14:40:45;;;;;;;12.48;7.88;;;17.80;99.90;;;;;;7428362;19;20026;-84
2022/09/23 14:43:21;;;;;;;13.57;10.27;;;17.60;99.90;;;;;;7426788;19;20010;-84
2022/09/23 14:45:59;;;;;;;8.15;5.25;;;17.50;99.90;;;;;;7427335;19;20391;-82
2022/09/23 14:48:34;;;;;;;8.48;6.38;;;17.40;99.90;;;;;;7426978;19;20348;-83
2022/09/23 14:51:06;;;;;;;11.90;8.05;;;17.30;99.90;;;;;;7426519;19;20018;-83
2022/09/23 14:53:36;;;;;;;9.35;6.53;;;17.30;99.90;;;;;;7427774;19;20010;-83
2022/09/23 14:56:05;;;;;;;11.10;9.90;;;17.20;99.90;;;;;;7427946;19;20034;-84
2022/09/23 14:59:00;;;;;;;10.68;6.75;;;17.10;99.90;;;;;;7425609;19;20022;-84
2022/09/23 15:01:37;;;;;;;9.48;7.97;;;17.10;99.90;;;;;;7426974;19;20120;-84
2022/09/23 15:04:13;;;;;;;12.05;8.52;;;17.00;99.90;;;;;;7422034;19;20531;-82
2022/09/23 15:06:56;;;;;;;14.93;10.15;;;16.90;99.90;;;;;;7425775;19;20044;-82
2022/09/23 15:09:38;;;;;;;14.02;8.75;;;16.80;99.90;;;;;;7423792;19;20018;-82
2022/09/23 15:12:19;;;;;;;10.43;7.97;;;16.70;99.90;;;;;;7429875;19;20057;-84
2022/09/23 15:14:52;;;;;;;10.85;9.25;;;16.60;99.90;;;;;;7422878;19;20014;-83
2022/09/23 15:17:36;;;;;;;21.85;12.35;;;16.50;99.90;;;;;;7429255;19;20522;-82
2022/09/23 15:20:15;;;;;;;14.52;10.00;;;16.50;99.90;;;;;;7428282;19;20379;-82
2022/09/23 15:22:49;;;;;;;12.95;10.82;;;16.40;99.90;;;;;;7423804;19;20494;-81
2022/09/23 15:25:21;;;;;;;13.82;9.85;;;16.30;99.90;;;;;;7426711;19;20519;-84
2022/09/23 15:28:09;;;;;;;10.90;7.22;;;16.40;99.90;;;;;;7424702;19;20086;-82
2022/09/23 15:30:37;;;;;;;12.40;10.77;;;16.30;99.90;;;;;;7400584;19;20551;-82
2022/09/23 15:33:05;;;;;;;13.05;9.75;;;16.30;99.90;;;;;;7398485;19;20014;-81
2022/09/23 15:35:31;;;;;;;13.98;9.93;;;16.20;99.90;;;;;;7398743;19;20111;-82
2022/09/23 15:38:00;;;;;;;14.77;10.60;;;16.30;99.90;;;;;;7395038;19;20026;-82
2022/09/23 15:40:29;;;;;;;13.15;10.05;;;16.20;99.90;;;;;;7397611;19;20018;-81
2022/09/23 15:42:57;;;;;;;14.18;11.57;;;16.20;99.90;;;;;;7397271;19;20475;-82
2022/09/23 15:45:34;;;;;;;15.65;12.32;;;16.00;99.90;;;;;;7397421;19;20014;-82
2022/09/23 15:48:06;;;;;;;17.05;12.45;;;15.90;99.90;;;;;;7397886;19;20483;-82
2022/09/23 15:50:35;;;;;;;14.73;11.02;;;15.80;99.90;;;;;;7394679;19;20015;-82
2022/09/23 15:53:05;;;;;;;14.18;12.70;;;15.70;99.90;;;;;;7396765;19;20506;-82
2022/09/23 15:55:32;;;;;;;14.93;12.65;;;15.70;99.90;;;;;;7397838;19;20018;-82
2022/09/23 15:57:58;;;;;;;16.80;12.27;;;15.60;99.90;;;;;;7396467;19;20010;-82
2022/09/23 16:00:29;;;;;;;16.50;13.48;;;15.50;99.90;;;;;;7398647;19;20014;-82
2022/09/23 16:02:57;;;;;;;15.43;13.02;;;15.50;99.90;;;;;;7398840;19;20033;-82
2022/09/23 16:05:47;;;;;;;17.35;15.30;;;15.40;99.90;;;;;;7395246;19;20019;-82
2022/09/23 16:08:14;;;;;;;15.82;14.13;;;15.30;99.90;;;;;;7393291;19;20336;-83
2022/09/23 16:10:44;;;;;;;18.85;15.75;;;15.20;99.90;;;;;;7395100;19;20020;-82
2022/09/23 16:13:13;;;;;;;18.08;16.15;;;15.20;99.90;;;;;;7396847;19;20090;-82
2022/09/23 16:15:41;;;;;;;16.52;14.80;;;15.10;99.90;;;;;;7350723;19;20054;-83
2022/09/23 16:18:12;;;;;;;17.48;15.25;;;15.10;99.90;;;;;;7393038;19;20070;-82
2022/09/23 16:20:43;;;;;;;20.67;16.48;;;15.00;99.90;;;;;;7393187;19;20010;-82
2022/09/23 16:23:34;;;;;;;18.63;16.65;;;14.90;99.90;;;;;;7391681;19;20015;-82
2022/09/23 16:26:21;;;;;;;22.52;18.13;;;14.90;99.90;;;;;;7393084;19;20006;-82
2022/09/23 16:28:50;;;;;;;20.27;17.05;;;14.80;99.90;;;;;;7394253;19;20352;-82
2022/09/23 16:31:20;;;;;;;21.55;17.98;;;14.80;99.90;;;;;;7394200;19;20373;-83
2022/09/23 16:33:50;;;;;;;19.45;17.38;;;14.70;99.90;;;;;;7389566;19;20047;-82
2022/09/23 16:36:39;;;;;;;20.27;17.00;;;14.70;99.90;;;;;;7396459;19;20423;-82
2022/09/23 16:39:08;;;;;;;19.10;16.80;;;14.70;99.90;;;;;;7393939;19;20018;-82
2022/09/23 16:41:35;;;;;;;21.02;16.92;;;14.60;99.90;;;;;;7391713;19;20418;-82
2022/09/23 16:44:06;;;;;;;19.10;16.75;;;14.60;99.90;;;;;;7394806;19;20011;-82
2022/09/23 16:46:33;;;;;;;21.50;18.35;;;14.50;99.90;;;;;;7393496;19;20018;-82
2022/09/23 16:49:00;;;;;;;19.13;17.15;;;14.50;99.90;;;;;;7395665;19;20019;-82
2022/09/23 16:51:29;;;;;;;19.67;17.67;;;14.50;99.90;;;;;;7396113;19;20042;-82
2022/09/23 16:54:01;;;;;;;20.15;17.45;;;14.40;99.90;;;;;;7390442;19;20018;-82
2022/09/23 16:56:27;;;;;;;24.52;18.92;;;14.40;99.90;;;;;;7393609;19;20025;-83
2022/09/23 16:58:54;;;;;;;21.02;18.83;;;14.40;99.90;;;;;;7395298;19;20014;-83
2022/09/23 17:04:09;;;;;;;20.70;18.38;;;14.30;99.90;;;;;;7394390;19;20066;-83
2022/09/23 17:06:41;;;;;;;22.45;19.83;;;14.30;99.90;;;;;;7394370;19;20019;-83
2022/09/23 17:09:08;;;;;;;23.02;18.92;;;14.20;99.90;;;;;;7397102;19;20011;-82
2022/09/23 17:11:36;;;;;;;23.55;19.98;;;14.20;99.90;;;;;;7394789;19;20036;-82
2022/09/23 17:14:04;;;;;;;23.52;19.75;;;14.20;99.90;;;;;;7392226;19;20022;-82
2022/09/23 17:16:33;;;;;;;21.70;18.35;;;14.20;99.90;;;;;;7392353;19;20042;-82
2022/09/23 17:19:06;;;;;;;24.13;20.38;;;14.20;99.90;;;;;;7391239;19;20021;-86
2022/09/23 17:21:36;;;;;;;24.23;21.27;;;14.20;99.90;;;;;;7393282;19;20096;-85
2022/09/23 17:24:06;;;;;;;22.73;19.92;;;14.20;99.90;;;;;;7390089;19;20011;-85
2022/09/23 17:26:34;;;;;;;25.73;21.73;;;14.10;99.90;;;;;;7391905;19;20022;-83
2022/09/23 17:29:06;;;;;;;26.30;21.63;;;14.10;99.90;;;;;;7395186;19;20025;-84
2022/09/23 17:31:36;;;;;;;21.88;19.58;;;14.10;99.90;;;;;;7393976;19;20471;-85
2022/09/23 17:34:09;;;;;;;22.52;20.20;;;14.10;99.90;;;;;;7392702;19;20018;-83
2022/09/23 17:36:38;;;;;;;30.27;22.98;;;14.10;99.90;;;;;;7390191;19;20459;-85
2022/09/23 17:39:05;;;;;;;23.13;20.60;;;14.10;99.90;;;;;;7391614;19;20356;-85
2022/09/23 17:41:32;;;;;;;25.15;21.70;;;14.10;99.90;;;;;;7392406;19;20074;-85
2022/09/23 17:43:59;;;;;;;23.70;21.17;;;14.10;99.90;;;;;;7392805;19;20045;-84
2022/09/23 17:46:28;;;;;;;24.10;20.02;;;14.10;99.90;;;;;;7391049;19;20038;-85
2022/09/23 17:49:00;;;;;;;23.48;21.08;;;14.10;99.90;;;;;;7388996;19;20082;-84
2022/09/23 17:51:28;;;;;;;24.08;20.77;;;14.10;99.90;;;;;;7393969;19;20019;-85
2022/09/23 17:53:56;;;;;;;23.10;20.70;;;14.10;99.90;;;;;;7392011;19;20024;-85
2022/09/23 17:56:25;;;;;;;25.65;21.80;;;14.10;99.90;;;;;;7388224;19;20031;-84
2022/09/23 17:58:52;;;;;;;26.20;22.35;;;14.10;99.90;;;;;;7388714;19;20433;-84
2022/09/23 18:01:22;;;;;;;25.20;21.67;;;14.10;99.90;;;;;;7391617;19;20106;-83
2022/09/23 18:03:58;;;;;;;24.88;22.05;;;14.00;99.90;;;;;;7391254;19;20010;-84
2022/09/23 18:06:32;;;;;;;23.98;21.48;;;14.00;99.90;;;;;;7388261;19;20018;-84
2022/09/23 18:09:02;;;;;;;23.33;20.83;;;14.00;99.90;;;;;;7390538;19;20025;-84
2022/09/23 18:11:31;;;;;;;24.52;21.92;;;14.00;99.90;;;;;;7393787;19;20039;-84
2022/09/23 18:14:06;;;;;;;28.77;23.17;;;14.00;99.90;;;;;;7391165;19;20014;-83
2022/09/23 18:16:39;;;;;;;27.20;24.25;;;13.90;99.90;;;;;;7390858;19;20022;-84
2022/09/23 18:19:09;;;;;;;27.77;24.80;;;13.90;99.90;;;;;;7390195;19;20023;-85
2022/09/23 18:21:39;;;;;;;31.33;26.77;;;13.90;99.90;;;;;;7391620;19;20014;-85
2022/09/23 18:24:06;;;;;;;29.52;26.33;;;13.90;99.90;;;;;;7392954;19;20024;-84
2022/09/23 18:26:34;;;;;;;29.77;26.02;;;13.80;99.90;;;;;;7391560;19;20006;-83
2022/09/23 18:29:02;;;;;;;33.95;28.65;;;13.80;99.90;;;;;;7392217;19;20494;-84
2022/09/23 18:31:33;;;;;;;29.95;26.77;;;13.80;99.90;;;;;;7394737;19;20028;-84
2022/09/23 18:34:05;;;;;;;33.88;26.85;;;13.80;99.90;;;;;;7391806;19;20035;-84
2022/09/23 18:36:32;;;;;;;29.13;26.05;;;13.70;99.90;;;;;;7392148;19;20015;-84
2022/09/23 18:38:59;;;;;;;29.77;26.67;;;13.80;99.90;;;;;;7389222;19;20560;-84
2022/09/23 18:41:27;;;;;;;33.13;27.25;;;13.70;99.90;;;;;;7391478;19;20119;-85
2022/09/23 18:43:54;;;;;;;32.05;27.17;;;13.70;99.90;;;;;;7391734;19;20081;-85
2022/09/23 18:46:22;;;;;;;32.28;26.90;;;13.70;99.90;;;;;;7392496;19;20090;-84
2022/09/23 18:51:45;;;;;;;30.42;26.00;;;13.60;99.90;;;;;;7389739;19;20018;-84
2022/09/23 18:54:14;;;;;;;34.95;27.08;;;13.60;99.90;;;;;;7391514;19;20019;-85
2022/09/23 18:56:42;;;;;;;31.60;28.25;;;13.60;99.90;;;;;;7389231;19;20019;-84
2022/09/23 18:59:13;;;;;;;32.08;28.75;;;13.50;99.90;;;;;;7386648;19;20072;-85
2022/09/23 19:01:42;;;;;;;29.73;26.23;;;13.50;99.90;;;;;;7391551;19;20022;-85
2022/09/23 19:04:08;;;;;;;31.42;26.42;;;13.50;99.90;;;;;;7391163;19;20022;-84
2022/09/23 19:06:36;;;;;;;32.95;29.38;;;13.50;99.90;;;;;;7399547;19;20014;-85
2022/09/23 19:09:06;;;;;;;30.55;27.33;;;13.50;99.90;;;;;;7396149;19;20011;-85
2022/09/23 19:11:38;;;;;;;34.33;28.98;;;13.50;99.90;;;;;;7396137;19;20032;-85
2022/09/23 19:14:09;;;;;;;35.05;30.83;;;13.50;99.90;;;;;;7398465;19;20512;-85
2022/09/23 19:16:39;;;;;;;27.90;24.90;;;13.40;99.90;;;;;;7396644;19;20018;-85
2022/09/23 19:19:07;;;;;;;30.83;25.52;;;13.40;99.90;;;;;;7397290;19;20757;-85
2022/09/23 19:21:35;;;;;;;31.33;27.67;;;13.40;99.90;;;;;;7402377;19;20393;-85